Time;durP1;ratioP1;P1;durP2;ratioP2;P2;SDS_P1;SDS_P2;PMS_P1;PMS_P2;Temp;Humidity;BMP_temperature;BMP_pressure;BME280_temperature;BME280_humidity;BME280_pressure;Samples;Min_cycle;Max_cycle;Signal;HPM_P1;HPM_P2
2023/09/27 00:02:22;;;;;;;8.75;7.85;;;16.30;99.90;;;;;;4989974;28;20274;-73
2023/09/27 00:04:49;;;;;;;11.75;8.20;;;16.20;99.90;;;;;;4992519;28;20203;-74
2023/09/27 00:07:16;;;;;;;10.02;7.70;;;16.10;99.90;;;;;;4991628;28;20230;-74
2023/09/27 00:09:43;;;;;;;10.05;9.15;;;16.00;99.90;;;;;;4999021;28;20202;-73
2023/09/27 00:12:10;;;;;;;10.95;8.63;;;16.00;99.90;;;;;;4991510;28;20208;-74
2023/09/27 00:14:38;;;;;;;8.48;7.65;;;15.90;99.90;;;;;;4988761;28;20757;-74
2023/09/27 00:17:05;;;;;;;15.50;9.10;;;15.80;99.90;;;;;;4988510;28;20234;-75
2023/09/27 00:19:32;;;;;;;11.68;10.48;;;15.80;99.90;;;;;;4986600;28;20203;-74
2023/09/27 00:21:59;;;;;;;11.60;10.45;;;15.80;99.90;;;;;;4985421;28;20199;-74
2023/09/27 00:24:26;;;;;;;12.65;9.43;;;15.70;99.90;;;;;;4991695;28;20654;-74
2023/09/27 00:26:53;;;;;;;10.32;8.95;;;15.60;99.90;;;;;;4987022;28;20240;-75
2023/09/27 00:29:20;;;;;;;12.88;9.30;;;15.60;99.90;;;;;;4994147;28;20658;-74
2023/09/27 00:31:48;;;;;;;13.20;10.63;;;15.60;99.90;;;;;;4994480;28;20202;-74
2023/09/27 00:34:15;;;;;;;15.40;11.63;;;15.50;99.90;;;;;;4995588;28;20272;-74
2023/09/27 00:36:42;;;;;;;15.82;12.10;;;15.60;99.90;;;;;;4995564;28;20241;-74
2023/09/27 00:39:09;;;;;;;11.10;9.75;;;15.50;99.90;;;;;;4995290;28;20198;-75
2023/09/27 00:41:36;;;;;;;11.60;10.48;;;15.50;99.90;;;;;;4992081;28;20309;-75
2023/09/27 00:44:04;;;;;;;11.68;10.63;;;15.40;99.90;;;;;;4995566;28;20198;-73
2023/09/27 00:46:30;;;;;;;13.20;11.82;;;15.40;99.90;;;;;;4995355;28;20313;-74
2023/09/27 00:48:59;;;;;;;12.25;11.05;;;15.30;99.90;;;;;;4994144;28;20285;-74
2023/09/27 00:51:26;;;;;;;10.65;9.65;;;15.30;99.90;;;;;;4990106;28;20213;-74
2023/09/27 00:53:55;;;;;;;12.45;11.35;;;15.20;99.90;;;;;;4987012;28;20220;-74
2023/09/27 00:56:23;;;;;;;13.00;11.75;;;15.20;99.90;;;;;;4992437;28;20240;-74
2023/09/27 00:58:50;;;;;;;13.02;10.27;;;15.20;99.90;;;;;;4994634;28;20289;-74
2023/09/27 01:01:17;;;;;;;12.60;11.00;;;15.10;99.90;;;;;;4994371;28;20379;-74
2023/09/27 01:03:44;;;;;;;11.25;10.13;;;15.10;99.90;;;;;;4995183;28;20276;-73
2023/09/27 01:06:12;;;;;;;12.45;10.60;;;15.10;99.90;;;;;;4994033;28;20680;-74
2023/09/27 01:08:39;;;;;;;13.32;10.52;;;15.10;99.90;;;;;;4993551;28;20614;-75
2023/09/27 01:11:06;;;;;;;14.13;11.45;;;15.10;99.90;;;;;;4994464;28;20206;-74
2023/09/27 01:13:34;;;;;;;11.70;10.57;;;15.00;99.90;;;;;;4992719;28;20248;-74
2023/09/27 01:16:01;;;;;;;9.80;8.80;;;15.00;99.90;;;;;;4987669;28;20316;-74
2023/09/27 01:18:28;;;;;;;12.07;10.95;;;15.00;99.90;;;;;;4991715;28;20210;-75
2023/09/27 01:20:56;;;;;;;14.77;12.40;;;15.00;99.90;;;;;;4994312;28;20198;-74
2023/09/27 01:23:24;;;;;;;12.15;11.05;;;15.00;99.90;;;;;;4984760;28;20672;-75
2023/09/27 01:25:58;;;;;;;11.63;10.43;;;14.90;99.90;;;;;;4992739;28;20210;-75
2023/09/27 01:28:26;;;;;;;20.10;11.95;;;14.90;99.90;;;;;;4992200;28;20220;-75
2023/09/27 01:30:52;;;;;;;11.20;10.10;;;14.90;99.90;;;;;;4991641;28;20202;-74
2023/09/27 01:33:19;;;;;;;11.88;10.68;;;14.90;99.90;;;;;;4992948;28;20584;-75
2023/09/27 01:35:46;;;;;;;12.63;11.35;;;14.90;99.90;;;;;;4995050;28;20202;-75
2023/09/27 01:38:14;;;;;;;12.80;11.52;;;14.80;99.90;;;;;;4994527;28;20326;-75
2023/09/27 01:40:43;;;;;;;14.02;12.63;;;14.80;99.90;;;;;;4986729;28;20624;-75
2023/09/27 01:43:11;;;;;;;13.90;12.32;;;14.80;99.90;;;;;;4990342;28;20244;-75
2023/09/27 01:45:39;;;;;;;15.85;13.93;;;14.70;99.90;;;;;;4992382;28;20197;-75
2023/09/27 01:48:06;;;;;;;14.50;13.05;;;14.70;99.90;;;;;;4992771;28;20201;-75
2023/09/27 01:50:35;;;;;;;13.82;12.52;;;14.60;99.90;;;;;;4981099;28;20205;-75
2023/09/27 01:53:03;;;;;;;14.13;10.40;;;14.60;99.90;;;;;;4993731;28;20257;-75
2023/09/27 01:55:30;;;;;;;14.60;13.30;;;14.60;99.90;;;;;;4993733;28;20324;-75
2023/09/27 01:57:58;;;;;;;11.38;10.25;;;14.60;99.90;;;;;;4991752;28;20229;-74
2023/09/27 02:00:25;;;;;;;12.65;11.52;;;14.60;99.90;;;;;;4991020;28;20288;-76
2023/09/27 02:02:55;;;;;;;13.25;12.02;;;14.70;99.90;;;;;;4992472;28;20201;-75
2023/09/27 02:05:22;;;;;;;13.50;12.15;;;14.60;99.90;;;;;;4991688;28;20236;-75
2023/09/27 02:07:49;;;;;;;15.23;13.82;;;14.50;99.90;;;;;;4991845;28;20316;-74
2023/09/27 02:10:16;;;;;;;14.07;12.77;;;14.50;99.90;;;;;;4993683;28;20225;-74
2023/09/27 02:12:44;;;;;;;14.57;13.27;;;14.60;99.90;;;;;;4991238;28;20240;-74
2023/09/27 02:15:15;;;;;;;12.85;11.27;;;14.40;99.90;;;;;;4993097;28;20206;-74
2023/09/27 02:17:43;;;;;;;14.93;13.57;;;14.40;99.90;;;;;;4994442;28;20227;-75
2023/09/27 02:20:12;;;;;;;13.95;12.50;;;14.40;99.90;;;;;;4989869;28;20557;-75
2023/09/27 02:22:40;;;;;;;15.32;13.80;;;14.40;99.90;;;;;;4987441;28;20198;-74
2023/09/27 02:25:11;;;;;;;15.13;13.50;;;14.40;99.90;;;;;;4984883;28;20204;-74
2023/09/27 02:27:38;;;;;;;16.05;13.35;;;14.40;99.90;;;;;;4989036;28;20249;-74
2023/09/27 02:30:11;;;;;;;14.07;12.77;;;14.40;99.90;;;;;;4987211;28;20293;-74
2023/09/27 02:32:40;;;;;;;15.30;13.82;;;14.40;99.90;;;;;;4985938;28;20201;-75
2023/09/27 02:35:09;;;;;;;14.55;13.20;;;14.30;99.90;;;;;;4989308;28;20224;-75
2023/09/27 02:37:36;;;;;;;18.33;14.55;;;14.30;99.90;;;;;;4980894;28;20271;-73
2023/09/27 02:40:11;;;;;;;15.23;13.73;;;14.30;99.90;;;;;;4992553;28;20621;-74
2023/09/27 02:42:39;;;;;;;11.50;10.40;;;14.30;99.90;;;;;;4982749;28;20192;-74
2023/09/27 02:45:09;;;;;;;12.90;11.60;;;14.30;99.90;;;;;;4992216;28;20197;-74
2023/09/27 02:47:36;;;;;;;13.75;12.35;;;14.30;99.90;;;;;;4991998;28;20308;-75
2023/09/27 02:50:09;;;;;;;14.60;13.13;;;14.30;99.90;;;;;;4992363;28;20540;-74
2023/09/27 02:52:37;;;;;;;14.57;13.05;;;14.30;99.90;;;;;;4991199;28;20248;-74
2023/09/27 02:55:05;;;;;;;15.88;14.38;;;14.30;99.90;;;;;;4992844;28;20308;-74
2023/09/27 02:57:32;;;;;;;15.00;13.60;;;14.30;99.90;;;;;;4992663;28;20320;-74
2023/09/27 02:59:58;;;;;;;16.27;14.73;;;14.20;99.90;;;;;;4992568;28;20288;-76
2023/09/27 03:02:26;;;;;;;15.23;13.80;;;14.10;99.90;;;;;;4990982;28;20289;-75
2023/09/27 03:04:52;;;;;;;16.73;15.02;;;14.10;99.90;;;;;;4993397;28;20216;-74
2023/09/27 03:07:21;;;;;;;16.73;15.23;;;14.10;99.90;;;;;;4992120;28;20248;-74
2023/09/27 03:09:48;;;;;;;17.77;16.02;;;14.00;99.90;;;;;;4993358;28;20201;-74
2023/09/27 03:12:15;;;;;;;17.70;15.90;;;14.00;99.90;;;;;;4992155;28;20256;-74
2023/09/27 03:14:42;;;;;;;17.50;15.80;;;14.00;99.90;;;;;;4992019;28;20577;-74
2023/09/27 03:17:09;;;;;;;17.52;15.85;;;14.00;99.90;;;;;;4992353;28;20213;-74
2023/09/27 03:19:36;;;;;;;19.92;17.67;;;14.00;99.90;;;;;;4991120;28;20365;-74
2023/09/27 03:22:04;;;;;;;20.00;17.85;;;14.00;99.90;;;;;;4992996;28;20280;-74
2023/09/27 03:24:34;;;;;;;18.65;16.90;;;14.00;99.90;;;;;;4993292;28;20225;-74
2023/09/27 03:27:03;;;;;;;17.08;15.38;;;14.00;99.90;;;;;;4990142;28;20220;-75
2023/09/27 03:29:30;;;;;;;17.73;16.02;;;14.00;99.90;;;;;;4992823;28;20202;-74
2023/09/27 03:31:57;;;;;;;17.60;14.52;;;14.00;99.90;;;;;;4992277;28;20223;-74
2023/09/27 03:34:24;;;;;;;16.95;15.15;;;14.00;99.90;;;;;;4991120;28;20312;-74
2023/09/27 03:36:55;;;;;;;19.90;16.23;;;14.00;99.90;;;;;;4993243;28;20217;-74
2023/09/27 03:39:22;;;;;;;17.00;15.50;;;14.00;99.90;;;;;;4985525;28;20237;-74
2023/09/27 03:41:51;;;;;;;15.65;14.10;;;14.00;99.90;;;;;;4991643;28;20205;-73
2023/09/27 03:44:18;;;;;;;18.63;16.70;;;14.00;99.90;;;;;;4983319;28;20198;-74
2023/09/27 03:46:57;;;;;;;15.75;14.23;;;14.10;99.90;;;;;;4993309;28;20568;-74
2023/09/27 03:49:24;;;;;;;14.80;13.30;;;14.10;99.90;;;;;;4986655;28;20205;-74
2023/09/27 03:51:51;;;;;;;15.98;14.52;;;14.10;99.90;;;;;;4986745;28;20244;-74
2023/09/27 03:54:18;;;;;;;16.67;15.13;;;14.10;99.90;;;;;;4986754;28;20529;-74
2023/09/27 03:56:47;;;;;;;16.20;14.70;;;14.10;99.90;;;;;;4989065;28;20234;-74
2023/09/27 03:59:15;;;;;;;21.65;17.42;;;14.10;99.90;;;;;;4991296;28;20228;-73
2023/09/27 04:01:42;;;;;;;18.58;15.85;;;14.10;99.90;;;;;;4983938;28;20201;-74
2023/09/27 04:04:09;;;;;;;16.70;15.05;;;14.10;99.90;;;;;;4995753;28;20253;-73
2023/09/27 04:06:36;;;;;;;17.90;16.30;;;14.10;99.90;;;;;;4994514;28;20225;-74
2023/09/27 04:09:05;;;;;;;18.73;16.83;;;14.10;99.90;;;;;;4994789;28;20285;-74
2023/09/27 04:11:32;;;;;;;19.88;17.77;;;14.00;99.90;;;;;;4991945;28;20530;-73
2023/09/27 04:13:59;;;;;;;19.98;17.88;;;14.00;99.90;;;;;;4987775;28;20623;-73
2023/09/27 04:16:28;;;;;;;20.58;18.58;;;14.00;99.90;;;;;;4996752;28;20327;-73
2023/09/27 04:18:58;;;;;;;20.05;17.88;;;14.00;99.90;;;;;;4996471;28;20198;-73
2023/09/27 04:21:25;;;;;;;22.27;20.10;;;14.00;99.90;;;;;;4987951;28;20252;-74
2023/09/27 04:23:55;;;;;;;19.25;17.33;;;14.00;99.90;;;;;;4992851;28;20194;-74
2023/09/27 04:26:23;;;;;;;17.30;15.55;;;14.00;99.90;;;;;;4993805;28;20235;-74
2023/09/27 04:28:52;;;;;;;17.85;16.05;;;14.00;99.90;;;;;;4995002;28;20236;-73
2023/09/27 04:31:19;;;;;;;17.70;15.90;;;14.10;99.90;;;;;;4999945;28;20256;-74
2023/09/27 04:33:47;;;;;;;18.45;16.83;;;14.20;99.90;;;;;;5003910;28;20229;-73
2023/09/27 04:36:17;;;;;;;18.63;16.83;;;14.10;99.90;;;;;;5001384;28;20692;-73
2023/09/27 04:38:46;;;;;;;19.85;18.02;;;14.10;99.90;;;;;;5007206;28;20201;-74
2023/09/27 04:41:14;;;;;;;20.92;18.83;;;14.10;99.90;;;;;;5013711;28;20197;-71
2023/09/27 04:43:47;;;;;;;20.17;18.20;;;14.10;99.90;;;;;;5005644;28;20229;-73
2023/09/27 04:46:14;;;;;;;21.95;19.60;;;14.10;99.90;;;;;;5001702;28;20260;-73
2023/09/27 04:48:42;;;;;;;23.63;21.23;;;14.10;99.90;;;;;;4996522;28;20284;-75
2023/09/27 04:51:10;;;;;;;23.50;21.23;;;14.10;99.90;;;;;;4995830;28;20285;-74
2023/09/27 04:53:38;;;;;;;23.10;20.67;;;14.00;99.90;;;;;;4994517;28;20264;-72
2023/09/27 04:56:05;;;;;;;20.23;18.20;;;14.00;99.90;;;;;;4995830;28;20247;-73
2023/09/27 04:58:32;;;;;;;22.45;20.25;;;14.00;99.90;;;;;;4995357;28;20206;-74
2023/09/27 05:01:00;;;;;;;25.05;21.20;;;13.90;99.90;;;;;;4995247;28;20194;-74
2023/09/27 05:03:27;;;;;;;21.13;18.95;;;14.00;99.90;;;;;;4993278;28;20205;-74
2023/09/27 05:05:54;;;;;;;21.20;19.10;;;14.00;99.90;;;;;;4989706;28;20255;-74
2023/09/27 05:08:24;;;;;;;20.75;18.75;;;14.00;99.90;;;;;;4991314;28;20284;-75
2023/09/27 05:10:51;;;;;;;24.00;21.25;;;14.10;99.90;;;;;;4991645;28;20257;-76
2023/09/27 05:13:21;;;;;;;24.42;20.52;;;14.10;99.90;;;;;;4991432;28;20299;-76
2023/09/27 05:15:49;;;;;;;24.65;21.63;;;14.10;99.90;;;;;;4992473;28;20233;-76
2023/09/27 05:18:15;;;;;;;23.30;21.10;;;14.10;99.90;;;;;;4991548;28;20201;-75
2023/09/27 05:20:43;;;;;;;24.48;22.23;;;14.10;99.90;;;;;;4990054;28;20198;-75
2023/09/27 05:23:10;;;;;;;26.33;23.65;;;14.10;99.90;;;;;;4993525;28;20197;-74
2023/09/27 05:25:39;;;;;;;26.67;23.98;;;14.20;99.90;;;;;;4988898;28;20205;-73
2023/09/27 05:28:06;;;;;;;25.00;22.55;;;14.20;99.90;;;;;;4993640;28;20355;-74
2023/09/27 05:30:34;;;;;;;26.98;24.15;;;14.10;99.90;;;;;;4994468;28;20201;-75
2023/09/27 05:33:01;;;;;;;27.52;24.83;;;14.30;99.90;;;;;;4988064;28;20204;-75
2023/09/27 05:35:28;;;;;;;25.45;23.00;;;14.20;99.90;;;;;;4992110;28;20637;-76
2023/09/27 05:37:55;;;;;;;26.00;23.35;;;14.20;99.90;;;;;;4990131;28;20628;-76
2023/09/27 05:40:22;;;;;;;24.90;22.58;;;14.30;99.90;;;;;;4987001;28;20565;-76
2023/09/27 05:42:51;;;;;;;25.63;23.13;;;14.30;99.90;;;;;;4990075;28;20769;-75
2023/09/27 05:45:18;;;;;;;25.52;22.13;;;14.40;99.90;;;;;;4992831;28;20450;-74
2023/09/27 05:47:45;;;;;;;26.60;24.00;;;14.40;99.90;;;;;;4986866;28;20309;-77
2023/09/27 05:50:12;;;;;;;27.20;24.60;;;14.40;99.90;;;;;;4993153;28;20648;-78
2023/09/27 05:52:43;;;;;;;23.95;21.55;;;14.30;99.90;;;;;;4991446;28;20633;-77
2023/09/27 05:55:11;;;;;;;24.50;22.10;;;14.40;99.90;;;;;;4988656;28;20221;-76
2023/09/27 05:57:38;;;;;;;25.67;23.02;;;14.60;99.90;;;;;;4990349;28;20249;-75
2023/09/27 06:00:15;;;;;;;27.10;24.35;;;14.50;99.90;;;;;;4991435;28;20194;-75
2023/09/27 06:02:43;;;;;;;23.05;20.85;;;14.60;99.90;;;;;;4975774;28;20205;-74
2023/09/27 06:05:11;;;;;;;21.23;19.15;;;14.70;99.90;;;;;;4989977;28;20279;-75
2023/09/27 06:07:38;;;;;;;25.08;22.38;;;14.80;99.90;;;;;;4986420;28;20229;-76
2023/09/27 06:10:06;;;;;;;25.30;22.80;;;14.90;99.90;;;;;;4992987;28;20197;-77
2023/09/27 06:12:33;;;;;;;23.67;21.27;;;14.90;99.90;;;;;;4992073;28;20536;-71
2023/09/27 06:15:00;;;;;;;23.90;21.60;;;15.00;99.90;;;;;;4987942;28;20209;-71
2023/09/27 06:17:28;;;;;;;20.73;18.42;;;15.20;99.90;;;;;;4991077;28;20227;-72
2023/09/27 06:19:55;;;;;;;26.83;24.13;;;15.30;99.90;;;;;;4989185;28;20207;-71
2023/09/27 06:22:23;;;;;;;25.77;23.08;;;15.30;99.90;;;;;;4990736;28;20220;-73
2023/09/27 06:24:50;;;;;;;21.23;19.17;;;15.40;99.90;;;;;;4991539;28;20204;-70
2023/09/27 06:27:17;;;;;;;22.75;20.48;;;15.60;99.90;;;;;;4990684;28;20317;-72
2023/09/27 06:29:44;;;;;;;19.48;17.60;;;16.00;99.90;;;;;;4990269;28;20201;-77
2023/09/27 06:32:11;;;;;;;16.80;15.20;;;16.70;99.90;;;;;;4989090;28;20790;-74
2023/09/27 06:34:39;;;;;;;14.40;12.90;;;17.90;99.90;;;;;;4986621;28;20579;-75
2023/09/27 06:37:07;;;;;;;21.50;18.10;;;18.90;99.90;;;;;;4992044;28;20517;-74
2023/09/27 06:39:34;;;;;;;16.53;14.03;;;19.60;99.90;;;;;;4987305;28;20457;-77
2023/09/27 06:42:02;;;;;;;18.03;13.47;;;20.20;99.90;;;;;;4984304;28;20447;-75
2023/09/27 06:44:29;;;;;;;16.93;12.70;;;21.10;99.90;;;;;;4990735;28;20541;-76
2023/09/27 06:46:56;;;;;;;15.00;13.50;;;22.20;99.90;;;;;;4987681;28;20480;-75
2023/09/27 06:49:23;;;;;;;25.63;15.17;;;22.70;99.90;;;;;;4992523;28;20828;-74
2023/09/27 06:51:53;;;;;;;16.63;14.90;;;23.00;99.90;;;;;;4989709;28;20491;-74
2023/09/27 06:54:21;;;;;;;14.03;12.37;;;22.90;99.90;;;;;;4988800;28;20447;-78
2023/09/27 06:56:48;;;;;;;14.07;12.77;;;23.10;99.90;;;;;;4983235;28;20570;-73
2023/09/27 06:59:15;;;;;;;15.20;13.70;;;23.50;99.90;;;;;;4991190;28;20522;-79
2023/09/27 07:01:42;;;;;;;16.13;14.63;;;23.60;99.90;;;;;;4986714;28;20474;-75
2023/09/27 07:04:12;;;;;;;14.93;13.60;;;23.70;99.60;;;;;;4989154;28;20730;-74
2023/09/27 07:06:39;;;;;;;14.73;13.50;;;24.20;99.10;;;;;;4990849;28;20508;-73
2023/09/27 07:09:13;;;;;;;18.27;16.50;;;24.60;98.10;;;;;;4982340;28;20761;-77
2023/09/27 07:11:42;;;;;;;17.07;15.27;;;24.30;97.30;;;;;;4987318;28;20988;-74
2023/09/27 07:14:08;;;;;;;14.20;13.00;;;24.40;97.30;;;;;;4986110;28;20535;-74
2023/09/27 07:16:37;;;;;;;17.10;15.30;;;24.60;97.20;;;;;;4989681;28;20488;-72
2023/09/27 07:19:05;;;;;;;16.23;14.80;;;24.50;96.80;;;;;;4991402;28;20440;-73
2023/09/27 07:21:34;;;;;;;16.23;14.60;;;24.70;96.60;;;;;;4993084;28;20457;-72
2023/09/27 07:24:03;;;;;;;15.30;13.70;;;25.10;95.90;;;;;;4991932;28;20499;-74
2023/09/27 07:26:33;;;;;;;16.30;13.53;;;26.00;94.90;;;;;;5001767;28;20979;-72
2023/09/27 07:29:00;;;;;;;16.67;14.53;;;26.40;94.10;;;;;;4994725;28;20500;-75
2023/09/27 07:31:29;;;;;;;15.90;14.50;;;26.10;93.40;;;;;;4994534;28;20460;-77
2023/09/27 07:33:56;;;;;;;16.03;14.50;;;25.80;93.40;;;;;;4984102;28;20878;-72
2023/09/27 07:36:24;;;;;;;16.47;14.97;;;26.10;93.40;;;;;;4990867;28;20516;-74
2023/09/27 07:38:51;;;;;;;16.37;14.77;;;25.80;92.90;;;;;;4994739;28;20841;-73
2023/09/27 07:41:20;;;;;;;16.33;14.80;;;25.80;93.60;;;;;;4993179;28;20578;-74
2023/09/27 07:43:48;;;;;;;18.00;13.27;;;26.10;93.30;;;;;;4994224;28;20899;-74
2023/09/27 07:46:17;;;;;;;16.77;15.23;;;26.70;92.80;;;;;;4992158;28;20468;-72
2023/09/27 07:48:45;;;;;;;16.60;14.33;;;27.10;91.70;;;;;;4994475;28;20539;-74
2023/09/27 07:51:12;;;;;;;16.57;14.83;;;27.40;91.30;;;;;;4992499;28;20528;-74
2023/09/27 07:53:39;;;;;;;15.77;14.30;;;27.70;90.60;;;;;;4986299;28;20476;-74
2023/09/27 07:56:09;;;;;;;14.23;13.03;;;28.20;89.70;;;;;;4993495;28;20570;-76
2023/09/27 07:58:36;;;;;;;20.77;16.90;;;28.60;88.60;;;;;;4987382;28;20444;-76
2023/09/27 08:01:04;;;;;;;18.43;16.80;;;28.40;88.10;;;;;;4988665;28;20519;-75
2023/09/27 08:03:31;;;;;;;19.73;17.93;;;27.50;89.20;;;;;;4995208;28;20466;-74
2023/09/27 08:05:59;;;;;;;17.90;16.00;;;27.00;90.10;;;;;;4993230;28;20457;-73
2023/09/27 08:08:27;;;;;;;18.67;15.90;;;27.20;90.60;;;;;;4997567;28;20448;-71
2023/09/27 08:10:54;;;;;;;15.43;13.93;;;27.70;90.20;;;;;;5003278;28;20484;-75
2023/09/27 08:13:21;;;;;;;17.50;15.90;;;28.00;89.80;;;;;;4999862;28;20416;-72
2023/09/27 08:15:50;;;;;;;17.83;15.97;;;28.60;88.80;;;;;;5013256;28;20484;-71
2023/09/27 08:18:18;;;;;;;15.80;14.03;;;29.20;87.50;;;;;;5000845;28;20472;-72
2023/09/27 08:20:45;;;;;;;23.27;15.60;;;29.50;86.30;;;;;;4993923;28;20524;-72
2023/09/27 08:23:12;;;;;;;15.87;14.37;;;29.70;85.80;;;;;;4991685;28;20468;-72
2023/09/27 08:25:40;;;;;;;15.23;13.73;;;30.30;84.20;;;;;;4994760;28;20796;-72
2023/09/27 08:28:09;;;;;;;13.87;12.67;;;30.70;83.10;;;;;;4992183;28;20471;-70
2023/09/27 08:30:36;;;;;;;14.93;13.47;;;31.10;81.60;;;;;;4988898;28;20451;-72
2023/09/27 08:33:03;;;;;;;23.27;14.30;;;31.50;80.20;;;;;;4980829;28;20457;-73
2023/09/27 08:35:32;;;;;;;15.35;13.88;;;31.80;79.40;;;;;;4991974;28;20538;-70
2023/09/27 08:37:59;;;;;;;15.37;13.77;;;31.70;79.20;;;;;;4992527;28;20615;-70
2023/09/27 08:40:26;;;;;;;14.73;13.43;;;31.60;78.80;;;;;;4993676;28;20956;-72
2023/09/27 08:42:57;;;;;;;14.90;13.50;;;31.30;79.30;;;;;;4986143;28;20448;-72
2023/09/27 08:45:25;;;;;;;14.17;12.90;;;31.40;79.70;;;;;;4993714;28;20540;-71
2023/09/27 08:47:52;;;;;;;10.23;9.43;;;31.10;80.10;;;;;;4985627;28;20464;-70
2023/09/27 08:50:20;;;;;;;11.73;10.63;;;31.60;80.80;;;;;;4987210;28;20455;-73
2023/09/27 08:52:49;;;;;;;14.37;12.33;;;32.20;78.90;;;;;;4991796;28;20444;-72
2023/09/27 08:55:17;;;;;;;13.80;12.60;;;32.40;78.00;;;;;;4989281;28;20512;-70
2023/09/27 08:57:47;;;;;;;14.17;12.73;;;32.10;77.60;;;;;;4992177;28;20555;-72
2023/09/27 09:00:19;;;;;;;14.60;13.10;;;31.50;78.50;;;;;;4989362;28;20930;-73
2023/09/27 09:02:52;;;;;;;16.80;13.50;;;31.30;79.50;;;;;;4989730;28;20441;-72
2023/09/27 09:05:20;;;;;;;17.00;15.50;;;30.90;80.20;;;;;;4988827;28;20448;-72
2023/09/27 09:07:48;;;;;;;13.87;12.67;;;30.20;80.80;;;;;;4993559;28;20457;-73
2023/09/27 09:10:16;;;;;;;11.40;10.20;;;29.60;83.20;;;;;;4993845;28;20800;-70
2023/09/27 09:12:45;;;;;;;15.63;12.07;;;29.90;83.70;;;;;;4991863;28;20773;-70
2023/09/27 09:15:15;;;;;;;16.77;13.33;;;30.20;83.30;;;;;;4993194;28;20452;-71
2023/09/27 09:17:47;;;;;;;13.50;12.30;;;29.80;83.30;;;;;;4988274;28;20472;-73
2023/09/27 09:20:22;;;;;;;13.13;11.93;;;29.80;84.50;;;;;;4991479;28;20457;-72
2023/09/27 09:22:53;;;;;;;12.63;11.47;;;30.10;84.00;;;;;;4990298;28;20506;-71
2023/09/27 09:25:22;;;;;;;16.00;12.57;;;29.70;84.70;;;;;;4983008;28;20914;-70
2023/09/27 09:28:03;;;;;;;15.80;13.30;;;29.30;85.00;;;;;;4982209;28;20464;-71
2023/09/27 09:30:41;;;;;;;17.20;15.47;;;28.90;86.10;;;;;;4989945;28;20444;-72
2023/09/27 09:33:10;;;;;;;15.90;14.37;;;28.20;88.00;;;;;;4992577;28;20452;-74
2023/09/27 09:35:38;;;;;;;15.50;13.90;;;27.20;88.70;;;;;;4994127;28;20485;-72
2023/09/27 09:38:07;;;;;;;13.80;12.50;;;26.60;90.60;;;;;;4987426;28;20981;-74
2023/09/27 09:40:34;;;;;;;13.60;12.30;;;26.30;91.50;;;;;;4984978;28;20445;-72
2023/09/27 09:43:02;;;;;;;12.87;11.60;;;26.10;92.20;;;;;;4993549;28;20452;-73
2023/09/27 09:45:32;;;;;;;13.80;12.50;;;26.30;92.70;;;;;;4992271;28;20528;-72
2023/09/27 09:47:59;;;;;;;14.40;13.10;;;26.70;92.20;;;;;;4992179;28;20440;-71
2023/09/27 09:50:29;;;;;;;13.23;12.03;;;26.60;91.90;;;;;;4993127;28;20452;-71
2023/09/27 09:52:58;;;;;;;13.20;11.80;;;26.60;92.60;;;;;;4987242;28;20471;-70
2023/09/27 09:55:29;;;;;;;13.07;11.60;;;26.80;92.10;;;;;;4992249;28;20856;-74
2023/09/27 09:57:59;;;;;;;12.63;11.43;;;27.40;92.00;;;;;;4992379;28;20852;-71
2023/09/27 10:00:27;;;;;;;14.53;13.23;;;27.70;91.20;;;;;;4986622;28;21185;-74
2023/09/27 10:03:02;;;;;;;17.10;10.93;;;27.90;90.70;;;;;;4992940;28;20492;-72
2023/09/27 10:05:38;;;;;;;17.23;13.40;;;28.40;90.50;;;;;;4976503;28;20444;-74
2023/09/27 10:08:05;;;;;;;15.43;12.90;;;28.50;89.50;;;;;;4994031;28;20473;-72
2023/09/27 10:10:34;;;;;;;13.60;12.20;;;28.50;89.10;;;;;;4990931;28;20464;-74
2023/09/27 10:13:04;;;;;;;11.47;10.37;;;28.20;89.10;;;;;;4990589;28;20524;-73
2023/09/27 10:15:33;;;;;;;12.00;11.00;;;28.50;88.80;;;;;;4991287;28;20451;-73
2023/09/27 10:18:33;;;;;;;10.80;9.80;;;28.60;88.50;;;;;;4986541;28;20449;-74
2023/09/27 10:21:06;;;;;;;12.20;10.93;;;29.10;87.60;;;;;;4988204;28;20471;-72
2023/09/27 10:23:57;;;;;;;12.90;11.17;;;28.90;86.90;;;;;;4990991;28;20451;-74
2023/09/27 10:26:35;;;;;;;12.43;11.10;;;28.90;87.80;;;;;;4993475;28;20461;-73
2023/09/27 10:29:13;;;;;;;12.90;11.20;;;29.00;88.10;;;;;;4987436;28;20455;-73
2023/09/27 10:32:20;;;;;;;11.67;10.50;;;28.90;87.90;;;;;;4990265;28;20464;-74
2023/09/27 10:34:48;;;;;;;14.50;12.90;;;28.80;88.30;;;;;;4991560;28;20433;-71
2023/09/27 10:37:16;;;;;;;11.17;8.90;;;28.50;85.80;;;;;;4986017;28;20484;-72
2023/09/27 10:40:20;;;;;;;15.17;13.70;;;28.00;88.10;;;;;;4992146;28;20467;-73
2023/09/27 10:42:49;;;;;;;10.57;9.33;;;27.40;89.30;;;;;;4991978;28;20444;-74
2023/09/27 10:45:18;;;;;;;10.90;9.33;;;27.40;89.50;;;;;;4989693;28;20437;-73
2023/09/27 10:47:46;;;;;;;11.47;9.80;;;27.30;90.10;;;;;;4993423;28;20557;-72
2023/09/27 10:50:13;;;;;;;11.83;10.23;;;26.90;90.50;;;;;;4992519;28;20444;-72
2023/09/27 10:52:40;;;;;;;10.17;9.37;;;26.90;90.60;;;;;;4993960;28;20462;-70
2023/09/27 10:55:14;;;;;;;10.10;9.17;;;27.00;90.60;;;;;;4994792;28;20452;-73
2023/09/27 10:57:42;;;;;;;9.10;8.27;;;27.10;90.40;;;;;;4993083;28;20616;-72
2023/09/27 11:00:14;;;;;;;7.50;6.40;;;27.10;90.10;;;;;;4985943;28;20822;-74
2023/09/27 11:02:42;;;;;;;8.10;7.33;;;27.00;89.30;;;;;;4990188;28;21041;-74
2023/09/27 11:05:09;;;;;;;6.67;6.00;;;27.30;89.30;;;;;;4982836;28;20445;-72
2023/09/27 11:07:43;;;;;;;7.63;6.83;;;27.40;87.90;;;;;;4986714;28;20461;-71
2023/09/27 11:10:11;;;;;;;7.67;6.87;;;27.40;88.10;;;;;;4987332;28;20989;-71
2023/09/27 11:12:38;;;;;;;7.70;6.80;;;27.20;88.90;;;;;;4990213;28;20449;-72
2023/09/27 11:15:05;;;;;;;7.70;6.23;;;26.90;89.40;;;;;;4985135;28;20523;-72
2023/09/27 11:17:35;;;;;;;6.57;5.97;;;26.80;89.10;;;;;;4986612;28;20492;-73
2023/09/27 11:20:11;;;;;;;6.10;5.50;;;26.60;89.70;;;;;;4977695;28;20524;-73
2023/09/27 11:22:38;;;;;;;7.70;6.90;;;26.30;90.20;;;;;;4974261;28;20490;-73
2023/09/27 11:25:25;;;;;;;6.87;6.20;;;26.10;90.70;;;;;;4986213;28;20534;-72
2023/09/27 11:27:52;;;;;;;8.27;6.63;;;25.70;91.20;;;;;;4990512;28;20452;-72
2023/09/27 11:30:25;;;;;;;8.27;6.00;;;25.80;91.20;;;;;;4988296;28;20528;-70
2023/09/27 11:32:56;;;;;;;6.30;5.00;;;26.00;91.20;;;;;;4982702;28;21025;-71
2023/09/27 11:35:25;;;;;;;8.20;5.50;;;26.10;90.70;;;;;;4986835;28;20514;-73
2023/09/27 11:38:09;;;;;;;6.07;5.27;;;26.10;91.10;;;;;;4986763;28;20490;-73
2023/09/27 11:40:37;;;;;;;5.87;4.87;;;26.00;91.00;;;;;;4985892;28;20444;-74
2023/09/27 11:43:05;;;;;;;5.83;5.23;;;26.20;90.80;;;;;;4989348;28;20452;-73
2023/09/27 11:45:43;;;;;;;5.70;5.20;;;26.10;90.60;;;;;;4987354;28;20487;-73
2023/09/27 11:48:11;;;;;;;8.23;7.20;;;26.00;90.80;;;;;;4985615;28;20440;-72
2023/09/27 11:50:39;;;;;;;8.13;7.00;;;26.10;90.90;;;;;;4990427;28;20795;-71
2023/09/27 11:53:06;;;;;;;7.43;6.20;;;26.20;91.00;;;;;;4990750;28;20448;-71
2023/09/27 11:55:33;;;;;;;8.80;7.30;;;26.10;91.30;;;;;;4996767;28;20790;-72
2023/09/27 11:58:02;;;;;;;11.70;7.57;;;26.00;91.10;;;;;;4983783;28;20821;-71
2023/09/27 12:00:30;;;;;;;7.40;6.20;;;26.00;91.40;;;;;;4992305;28;20464;-74
2023/09/27 12:02:58;;;;;;;8.87;7.70;;;25.80;91.60;;;;;;4992115;28;20452;-72
2023/09/27 12:05:27;;;;;;;10.37;7.30;;;25.90;91.70;;;;;;4980124;28;20449;-72
2023/09/27 12:07:54;;;;;;;9.20;7.97;;;25.90;92.10;;;;;;4982565;28;20475;-72
2023/09/27 12:10:22;;;;;;;7.63;6.23;;;25.80;91.90;;;;;;4989116;28;20481;-74
2023/09/27 12:12:54;;;;;;;8.40;7.70;;;25.70;92.40;;;;;;4985718;28;20546;-73
2023/09/27 12:15:25;;;;;;;16.87;9.53;;;25.60;92.20;;;;;;4983733;28;20938;-72
2023/09/27 12:17:52;;;;;;;10.50;7.40;;;25.40;92.60;;;;;;4984095;28;20483;-71
2023/09/27 12:20:19;;;;;;;8.00;7.13;;;25.30;92.90;;;;;;4991849;28;20453;-72
2023/09/27 12:22:47;;;;;;;10.20;7.70;;;25.30;92.90;;;;;;4988974;28;20572;-71
2023/09/27 12:25:14;;;;;;;8.97;8.00;;;25.30;93.00;;;;;;4994878;28;20981;-72
2023/09/27 12:27:41;;;;;;;8.97;7.60;;;25.30;93.30;;;;;;4998093;28;20498;-71
2023/09/27 12:30:10;;;;;;;7.27;6.57;;;25.50;93.30;;;;;;4985339;28;20466;-72
2023/09/27 12:32:37;;;;;;;6.30;5.80;;;25.60;93.20;;;;;;4992765;28;20454;-73
2023/09/27 12:35:05;;;;;;;7.50;6.80;;;25.50;93.40;;;;;;4990698;28;20573;-73
2023/09/27 12:37:33;;;;;;;8.83;7.97;;;25.70;92.90;;;;;;4994772;28;20527;-74
2023/09/27 12:40:01;;;;;;;10.53;7.73;;;25.80;92.70;;;;;;4991125;28;20826;-72